createdAt,value
2019-01-29T00:01:21.425Z,0.80
2019-01-29T00:03:50.257Z,0.80
2019-01-29T00:06:19.119Z,0.80
2019-01-29T00:08:48.020Z,0.80
2019-01-29T00:11:16.870Z,0.80
2019-01-29T00:13:45.755Z,0.70
2019-01-29T00:16:14.675Z,0.70
2019-01-29T00:18:43.500Z,0.70
2019-01-29T00:21:12.413Z,0.70
2019-01-29T00:23:41.250Z,0.70
2019-01-29T00:26:10.109Z,0.70
2019-01-29T00:28:38.956Z,0.70
2019-01-29T00:31:07.872Z,0.50
2019-01-29T00:33:36.696Z,0.40
2019-01-29T00:36:05.688Z,0.40
2019-01-29T00:38:34.672Z,0.40
2019-01-29T00:41:03.529Z,0.30
2019-01-29T00:43:32.484Z,0.30
2019-01-29T00:46:01.340Z,0.20
2019-01-29T00:48:30.256Z,0.10
2019-01-29T00:50:59.229Z,0.10
2019-01-29T00:53:28.077Z,0.00
2019-01-29T00:55:56.989Z,-0.10
2019-01-29T00:58:25.843Z,-0.10
2019-01-29T01:00:54.665Z,-0.20
2019-01-29T01:03:23.505Z,-0.10
2019-01-29T01:05:52.478Z,-0.20
2019-01-29T01:08:21.397Z,-0.20
2019-01-29T01:10:50.252Z,-0.30
2019-01-29T01:13:19.097Z,-0.40
2019-01-29T01:15:48.017Z,-0.40
2019-01-29T01:18:17.192Z,-0.40
2019-01-29T01:20:46.184Z,-0.40
2019-01-29T01:23:15.116Z,-0.40
2019-01-29T01:25:44.025Z,-0.50
2019-01-29T01:28:12.933Z,-0.60
2019-01-29T01:30:41.769Z,-0.60
2019-01-29T01:33:10.593Z,-0.70
2019-01-29T01:35:39.472Z,-0.70
2019-01-29T01:38:08.301Z,-0.70
2019-01-29T01:40:37.213Z,-0.70
2019-01-29T01:43:06.206Z,-0.70
2019-01-29T01:45:35.119Z,-0.70
2019-01-29T01:48:04.037Z,-0.80
2019-01-29T01:50:33.022Z,-0.90
2019-01-29T01:53:01.925Z,-0.80
2019-01-29T01:55:30.772Z,-0.80
2019-01-29T01:57:59.720Z,-0.80
2019-01-29T02:00:28.645Z,-0.80
2019-01-29T02:02:57.544Z,-0.80
2019-01-29T02:05:26.549Z,-0.70
2019-01-29T02:07:55.377Z,-0.70
2019-01-29T02:10:27.032Z,-0.70
2019-01-29T02:12:56.032Z,-0.70
2019-01-29T02:15:25.004Z,-0.70
2019-01-29T02:17:53.985Z,-0.70
2019-01-29T02:20:22.972Z,-0.70
2019-01-29T02:22:51.876Z,-0.70
2019-01-29T02:25:20.792Z,-0.70
2019-01-29T02:27:49.772Z,-0.70
2019-01-29T02:30:23.295Z,-0.70
2019-01-29T02:32:52.289Z,-0.70
2019-01-29T02:35:21.262Z,-0.70
2019-01-29T02:37:50.264Z,-0.80
2019-01-29T02:40:24.497Z,-0.80
2019-01-29T02:42:53.445Z,-0.80
2019-01-29T02:45:23.072Z,-0.80
2019-01-29T02:47:52.142Z,-0.90
2019-01-29T02:50:21.213Z,-0.90
2019-01-29T02:52:50.113Z,-1.00
2019-01-29T02:55:19.083Z,-1.00
2019-01-29T02:57:48.273Z,-1.10
2019-01-29T03:00:19.521Z,-1.20
2019-01-29T03:02:48.526Z,-1.20
2019-01-29T03:05:17.739Z,-1.20
2019-01-29T03:07:47.349Z,-1.30
2019-01-29T03:10:21.845Z,-1.20
2019-01-29T03:12:50.824Z,-1.10
2019-01-29T03:15:24.230Z,-1.00
2019-01-29T03:17:53.209Z,-0.90
2019-01-29T03:20:22.292Z,-0.80
2019-01-29T03:22:51.283Z,-0.70
2019-01-29T03:25:21.657Z,-0.70
2019-01-29T03:27:50.608Z,-0.50
2019-01-29T03:30:19.739Z,-0.50
2019-01-29T03:32:48.782Z,-0.50
2019-01-29T03:35:17.977Z,-0.40
2019-01-29T03:37:46.956Z,-0.30
2019-01-29T03:40:18.783Z,-0.30
2019-01-29T03:42:47.692Z,-0.20
2019-01-29T03:45:17.157Z,-0.20
2019-01-29T03:47:46.062Z,-0.20
2019-01-29T03:50:17.136Z,-0.10
2019-01-29T03:52:46.181Z,-0.10
2019-01-29T03:55:15.328Z,-0.10
2019-01-29T03:57:44.282Z,-0.10
2019-01-29T04:00:22.280Z,-0.10
2019-01-29T04:02:51.218Z,-0.10
2019-01-29T04:05:20.035Z,-0.10
2019-01-29T04:07:49.021Z,-0.10
2019-01-29T04:10:18.573Z,0.00
2019-01-29T04:12:47.549Z,0.00
2019-01-29T04:15:17.714Z,0.00
2019-01-29T04:17:46.784Z,0.00
2019-01-29T04:20:19.914Z,0.00
2019-01-29T04:22:49.002Z,0.10
2019-01-29T04:25:18.032Z,0.10
2019-01-29T04:27:46.937Z,0.10
2019-01-29T04:30:20.259Z,0.10
2019-01-29T04:32:49.272Z,0.10
2019-01-29T04:35:18.230Z,0.20
2019-01-29T04:37:47.037Z,0.10
2019-01-29T04:40:17.788Z,0.20
2019-01-29T04:42:46.849Z,0.20
2019-01-29T04:45:16.392Z,0.20
2019-01-29T04:47:45.463Z,0.30
2019-01-29T04:50:19.163Z,0.40
2019-01-29T04:52:48.002Z,0.50
2019-01-29T04:55:16.981Z,0.60
2019-01-29T04:57:45.882Z,0.60
2019-01-29T05:00:23.363Z,0.70
2019-01-29T05:02:52.438Z,0.70
2019-01-29T05:05:21.891Z,0.70
2019-01-29T05:07:50.918Z,0.80
2019-01-29T05:10:20.020Z,0.80
2019-01-29T05:12:48.912Z,0.80
2019-01-29T05:15:18.029Z,0.90
2019-01-29T05:17:46.980Z,0.90
2019-01-29T05:20:17.969Z,0.90
2019-01-29T05:22:46.943Z,0.90
2019-01-29T05:25:15.931Z,0.80
2019-01-29T05:27:44.828Z,0.80
2019-01-29T05:30:16.495Z,0.80
2019-01-29T05:32:45.392Z,0.80
2019-01-29T05:35:14.656Z,0.80
2019-01-29T05:37:43.476Z,0.90
2019-01-29T05:40:16.772Z,0.80
2019-01-29T05:42:45.735Z,0.80
2019-01-29T05:45:16.213Z,0.70
2019-01-29T05:47:45.086Z,0.70
2019-01-29T05:50:14.393Z,0.70
2019-01-29T05:52:43.382Z,0.70
2019-01-29T05:55:12.611Z,0.70
2019-01-29T05:57:41.575Z,0.70
2019-01-29T06:00:17.227Z,0.60
2019-01-29T06:02:48.251Z,0.60
2019-01-29T06:05:17.216Z,0.70
2019-01-29T06:07:46.117Z,0.70
2019-01-29T06:10:15.207Z,0.70
2019-01-29T06:12:44.089Z,0.70
2019-01-29T06:15:15.096Z,0.80
2019-01-29T06:17:43.911Z,0.80
2019-01-29T06:20:15.420Z,0.80
2019-01-29T06:22:44.389Z,0.80
2019-01-29T06:25:13.442Z,0.90
2019-01-29T06:27:42.489Z,0.90
2019-01-29T06:30:12.417Z,0.90
2019-01-29T06:32:41.385Z,0.90
2019-01-29T06:35:12.361Z,0.90
2019-01-29T06:37:41.333Z,0.90
2019-01-29T06:40:11.692Z,0.90
2019-01-29T06:42:40.680Z,0.90
2019-01-29T06:45:12.016Z,0.90
2019-01-29T06:47:40.987Z,0.90
2019-01-29T06:50:12.248Z,0.90
2019-01-29T06:52:41.161Z,0.90
2019-01-29T06:55:12.084Z,0.90
2019-01-29T06:57:40.984Z,0.90
2019-01-29T07:00:13.369Z,1.00
2019-01-29T07:02:42.400Z,1.10
2019-01-29T07:05:11.476Z,1.20
2019-01-29T07:07:40.363Z,1.30
2019-01-29T07:10:10.381Z,1.40
2019-01-29T07:12:39.191Z,1.50
2019-01-29T07:15:12.260Z,1.50
2019-01-29T07:17:45.069Z,1.50
2019-01-29T07:20:14.020Z,1.40
2019-01-29T07:22:43.001Z,1.40
2019-01-29T07:25:12.254Z,1.40
2019-01-29T07:27:41.153Z,1.40
2019-01-29T07:30:13.031Z,1.30
2019-01-29T07:32:41.948Z,1.30
2019-01-29T07:35:10.835Z,1.40
2019-01-29T07:37:39.721Z,1.40
2019-01-29T07:40:09.184Z,1.40
2019-01-29T07:42:38.039Z,1.40
2019-01-29T07:45:07.493Z,1.50
2019-01-29T07:47:36.393Z,1.50
2019-01-29T07:50:06.009Z,1.60
2019-01-29T07:52:35.184Z,1.60
2019-01-29T07:55:04.444Z,1.60
2019-01-29T07:57:33.262Z,1.70
2019-01-29T08:00:02.236Z,1.70
2019-01-29T08:02:31.075Z,1.60
2019-01-29T08:04:59.916Z,1.60
2019-01-29T08:07:28.799Z,1.60
2019-01-29T08:09:57.656Z,1.60
2019-01-29T08:12:26.506Z,1.60
2019-01-29T08:14:55.481Z,1.70
2019-01-29T08:17:24.448Z,1.80
2019-01-29T08:19:53.347Z,1.70
2019-01-29T08:22:22.247Z,1.80
2019-01-29T08:24:52.080Z,1.80
2019-01-29T08:27:21.604Z,1.80
2019-01-29T08:29:50.416Z,1.80
2019-01-29T08:32:19.317Z,2.00
2019-01-29T08:34:48.210Z,2.10
2019-01-29T08:37:17.044Z,2.30
2019-01-29T08:39:46.104Z,2.50
2019-01-29T08:42:15.085Z,2.50
2019-01-29T08:44:43.908Z,2.50
2019-01-29T08:47:12.822Z,2.60
2019-01-29T08:49:41.708Z,2.80
2019-01-29T08:52:11.699Z,2.80
2019-01-29T08:54:40.689Z,2.90
2019-01-29T08:57:09.511Z,2.90
2019-01-29T08:59:38.391Z,3.00
2019-01-29T09:02:08.264Z,3.00
2019-01-29T09:04:37.360Z,3.40
2019-01-29T09:07:06.277Z,3.60
2019-01-29T09:09:35.172Z,3.70
2019-01-29T09:12:04.162Z,3.80
2019-01-29T09:14:33.040Z,3.80
2019-01-29T09:17:01.946Z,3.90
2019-01-29T09:19:30.833Z,3.70
2019-01-29T09:21:59.660Z,3.40
2019-01-29T09:24:28.464Z,3.20
2019-01-29T09:26:57.288Z,2.90
2019-01-29T09:29:26.196Z,2.80
2019-01-29T09:31:55.155Z,2.70
2019-01-29T09:34:24.137Z,2.60
2019-01-29T09:36:53.021Z,2.50
2019-01-29T09:39:21.849Z,2.20
2019-01-29T09:41:50.736Z,1.90
2019-01-29T09:44:19.592Z,1.70
2019-01-29T09:46:48.412Z,1.70
2019-01-29T09:49:17.244Z,1.80
2019-01-29T09:51:46.136Z,1.90
2019-01-29T09:54:15.132Z,2.10
2019-01-29T09:56:43.948Z,2.30
2019-01-29T09:59:12.784Z,2.40
2019-01-29T10:01:41.667Z,2.40
2019-01-29T10:04:10.498Z,2.60
2019-01-29T10:06:39.305Z,2.70
2019-01-29T10:09:08.910Z,2.80
2019-01-29T10:11:37.745Z,2.60
2019-01-29T10:14:06.926Z,2.60
2019-01-29T10:16:35.829Z,2.70
2019-01-29T10:19:04.789Z,2.70
2019-01-29T10:21:33.628Z,2.70
2019-01-29T10:24:02.451Z,2.70
2019-01-29T10:26:31.351Z,2.70
2019-01-29T10:29:00.239Z,2.70
2019-01-29T10:31:29.077Z,2.90
2019-01-29T10:33:57.961Z,3.10
2019-01-29T10:36:26.946Z,3.20
2019-01-29T10:38:55.861Z,3.20
2019-01-29T10:41:24.664Z,3.30
2019-01-29T10:43:53.575Z,3.50
2019-01-29T10:46:22.392Z,3.60
2019-01-29T10:48:51.376Z,3.70
2019-01-29T10:51:20.268Z,3.80
2019-01-29T10:53:49.190Z,3.90
2019-01-29T10:56:18.025Z,3.90
2019-01-29T10:58:46.879Z,4.20
2019-01-29T11:01:15.884Z,4.30
2019-01-29T11:03:44.857Z,4.30
2019-01-29T11:06:13.821Z,4.60
2019-01-29T11:08:42.632Z,5.00
2019-01-29T11:11:11.533Z,5.60
2019-01-29T11:13:40.518Z,6.10
2019-01-29T11:16:09.423Z,6.30
2019-01-29T11:18:38.384Z,6.20
2019-01-29T11:21:07.373Z,6.10
2019-01-29T11:23:36.252Z,5.90
2019-01-29T11:26:05.765Z,5.90
2019-01-29T11:28:34.652Z,5.60
2019-01-29T11:31:03.844Z,5.40
2019-01-29T11:33:32.739Z,5.50
2019-01-29T11:36:01.695Z,5.50
2019-01-29T11:38:30.516Z,5.50
2019-01-29T11:40:59.501Z,5.70
2019-01-29T11:43:28.308Z,5.70
2019-01-29T11:45:57.484Z,6.00
2019-01-29T11:48:26.386Z,6.30
2019-01-29T11:50:55.288Z,6.20
2019-01-29T11:53:24.181Z,6.30
2019-01-29T11:55:53.079Z,6.30
2019-01-29T11:58:21.985Z,6.30
2019-01-29T12:01:19.083Z,6.30
2019-01-29T12:03:47.917Z,6.20
2019-01-29T12:06:16.801Z,6.00
2019-01-29T12:08:45.700Z,6.00
2019-01-29T12:11:14.586Z,6.10
2019-01-29T12:13:43.484Z,6.20
2019-01-29T12:16:12.380Z,6.30
2019-01-29T12:18:41.204Z,6.40
2019-01-29T12:21:10.084Z,6.60
2019-01-29T12:23:38.993Z,6.80
2019-01-29T12:26:12.999Z,6.90
2019-01-29T12:28:38.500Z,7.00
2019-01-29T12:31:07.399Z,6.90
2019-01-29T12:33:36.342Z,6.90
2019-01-29T12:36:05.449Z,7.00
2019-01-29T12:38:34.413Z,7.20
2019-01-29T12:41:03.401Z,7.40
2019-01-29T12:43:32.204Z,7.50
2019-01-29T12:46:01.199Z,7.60
2019-01-29T12:48:30.180Z,7.40
2019-01-29T12:51:00.423Z,7.30
2019-01-29T12:53:32.756Z,7.20
2019-01-29T12:56:01.588Z,7.00
2019-01-29T12:58:30.401Z,6.90
2019-01-29T13:01:00.452Z,6.90
2019-01-29T13:03:29.345Z,6.80
2019-01-29T13:05:58.234Z,6.90
2019-01-29T13:08:27.224Z,6.90
2019-01-29T13:10:56.176Z,7.00
2019-01-29T13:13:25.160Z,6.90
2019-01-29T13:15:54.041Z,6.90
2019-01-29T13:18:22.925Z,6.60
2019-01-29T13:20:51.834Z,6.40
2019-01-29T13:23:20.731Z,6.60
2019-01-29T13:25:49.575Z,6.80
2019-01-29T13:28:18.538Z,6.70
2019-01-29T13:30:47.513Z,6.70
2019-01-29T13:33:16.736Z,6.70
2019-01-29T13:35:45.705Z,6.50
2019-01-29T13:38:14.891Z,6.30
2019-01-29T13:40:43.786Z,6.10
2019-01-29T13:43:12.759Z,6.10
2019-01-29T13:45:41.836Z,6.10
2019-01-29T13:48:10.976Z,6.40
2019-01-29T13:50:47.540Z,6.30
2019-01-29T13:53:16.349Z,6.20
2019-01-29T13:55:45.275Z,6.00
2019-01-29T13:58:14.461Z,6.10
2019-01-29T14:00:43.462Z,6.20
2019-01-29T14:03:13.008Z,6.20
2019-01-29T14:05:41.891Z,6.00
2019-01-29T14:08:10.869Z,6.00
2019-01-29T14:10:39.760Z,6.10
2019-01-29T14:13:08.582Z,6.10
2019-01-29T14:16:02.672Z,6.20
2019-01-29T14:18:32.596Z,6.20
2019-01-29T14:21:01.847Z,6.20
2019-01-29T14:23:30.812Z,6.00
2019-01-29T14:25:59.756Z,6.00
2019-01-29T14:28:28.785Z,6.00
2019-01-29T14:30:57.759Z,5.90
2019-01-29T14:33:26.820Z,5.90
2019-01-29T14:35:55.792Z,5.90
2019-01-29T14:39:12.035Z,5.80
2019-01-29T14:41:41.037Z,5.70
2019-01-29T14:44:22.249Z,5.40
2019-01-29T14:46:51.061Z,5.20
2019-01-29T14:49:20.051Z,5.20
2019-01-29T14:51:48.955Z,5.40
2019-01-29T14:54:17.779Z,5.30
2019-01-29T14:56:46.607Z,5.30
2019-01-29T14:59:15.488Z,5.10
2019-01-29T15:01:44.561Z,5.10
2019-01-29T15:04:13.381Z,5.00
2019-01-29T15:06:42.432Z,4.90
2019-01-29T15:09:12.698Z,4.70
2019-01-29T15:11:41.596Z,4.50
2019-01-29T15:14:10.561Z,4.40
2019-01-29T15:16:53.604Z,4.20
2019-01-29T15:19:25.053Z,4.00
2019-01-29T15:21:54.039Z,3.90
2019-01-29T15:24:22.915Z,3.80
2019-01-29T15:26:51.731Z,3.70
2019-01-29T15:29:20.708Z,3.50
2019-01-29T15:31:49.603Z,3.40
2019-01-29T15:34:18.416Z,3.30
2019-01-29T15:36:47.233Z,3.30
2019-01-29T15:39:16.064Z,3.20
2019-01-29T15:41:44.956Z,3.10
2019-01-29T15:44:13.878Z,3.00
2019-01-29T15:46:42.837Z,3.00
2019-01-29T15:49:11.731Z,2.80
2019-01-29T15:51:40.674Z,2.60
2019-01-29T15:54:09.664Z,2.40
2019-01-29T15:56:38.589Z,2.30
2019-01-29T15:59:07.538Z,2.10
2019-01-29T16:01:36.484Z,2.00
2019-01-29T16:04:05.661Z,1.90
2019-01-29T16:06:34.648Z,1.90
2019-01-29T16:09:05.788Z,1.60
2019-01-29T16:11:34.700Z,1.50
2019-01-29T16:14:03.613Z,1.40
2019-01-29T16:16:32.628Z,1.10
2019-01-29T16:19:03.452Z,1.00
2019-01-29T16:21:32.371Z,0.90
2019-01-29T16:24:01.287Z,0.90
2019-01-29T16:26:30.191Z,0.80
2019-01-29T16:28:59.029Z,0.70
2019-01-29T16:31:27.985Z,0.70
2019-01-29T16:33:57.065Z,0.60
2019-01-29T16:36:26.050Z,0.60
2019-01-29T16:38:54.892Z,0.50
2019-01-29T16:41:23.868Z,0.40
2019-01-29T16:43:52.959Z,0.30
2019-01-29T16:46:21.976Z,0.20
2019-01-29T16:48:50.871Z,0.20
2019-01-29T16:51:19.782Z,0.10
2019-01-29T16:53:48.634Z,0.10
2019-01-29T16:56:17.548Z,0.00
2019-01-29T16:58:47.238Z,0.00
2019-01-29T17:01:16.276Z,0.00
2019-01-29T17:03:45.144Z,0.00
2019-01-29T17:06:25.451Z,-0.10
2019-01-29T17:08:55.263Z,-0.10
2019-01-29T17:11:25.576Z,-0.10
2019-01-29T17:13:54.465Z,-0.20
2019-01-29T17:16:24.566Z,-0.20
2019-01-29T17:18:54.016Z,-0.30
2019-01-29T17:21:23.046Z,-0.40
2019-01-29T17:23:51.949Z,-0.50
2019-01-29T17:26:20.882Z,-0.50
2019-01-29T17:28:49.714Z,-0.60
2019-01-29T17:31:18.542Z,-0.60
2019-01-29T17:33:47.436Z,-0.60
2019-01-29T17:36:16.304Z,-0.60
2019-01-29T17:38:45.144Z,-0.60
2019-01-29T17:41:14.048Z,-0.60
2019-01-29T17:43:42.977Z,-0.70
2019-01-29T17:46:11.960Z,-0.70
2019-01-29T17:48:40.780Z,-0.80
2019-01-29T17:51:09.791Z,-0.80
2019-01-29T17:53:38.688Z,-0.80
2019-01-29T17:56:07.588Z,-0.80
2019-01-29T17:58:36.429Z,-0.80
2019-01-29T18:01:05.503Z,-0.90
2019-01-29T18:03:34.441Z,-0.80
2019-01-29T18:06:03.445Z,-0.90
2019-01-29T18:08:34.757Z,-0.90
2019-01-29T18:11:03.762Z,-1.00
2019-01-29T18:13:32.728Z,-1.00
2019-01-29T18:16:01.651Z,-1.00
2019-01-29T18:18:30.685Z,-1.00
2019-01-29T18:20:59.540Z,-1.00
2019-01-29T18:23:28.351Z,-1.10
2019-01-29T18:25:57.333Z,-1.10
2019-01-29T18:28:26.340Z,-1.10
2019-01-29T18:30:55.176Z,-1.10
2019-01-29T18:33:24.097Z,-1.20
2019-01-29T18:35:52.996Z,-1.30
2019-01-29T18:38:21.852Z,-1.30
2019-01-29T18:40:53.569Z,-1.30
2019-01-29T18:43:22.476Z,-1.30
2019-01-29T18:45:51.487Z,-1.30
2019-01-29T18:48:20.421Z,-1.40
2019-01-29T18:50:49.316Z,-1.50
2019-01-29T18:53:18.249Z,-1.50
2019-01-29T18:55:47.161Z,-1.50
2019-01-29T18:58:16.093Z,-1.60
2019-01-29T19:00:54.008Z,-1.60
2019-01-29T19:03:15.905Z,-1.60
2019-01-29T19:05:44.873Z,-1.60
2019-01-29T19:08:13.837Z,-1.70
2019-01-29T19:10:42.800Z,-1.60
2019-01-29T19:13:11.789Z,-1.60
2019-01-29T19:15:40.685Z,-1.60
2019-01-29T19:18:09.676Z,-1.70
2019-01-29T19:20:38.580Z,-1.80
2019-01-29T19:23:07.496Z,-1.80
2019-01-29T19:25:36.501Z,-1.80
2019-01-29T19:28:05.533Z,-1.80
2019-01-29T19:30:34.460Z,-1.90
2019-01-29T19:33:03.420Z,-1.90
2019-01-29T19:35:32.581Z,-1.90
2019-01-29T19:38:01.891Z,-1.90
2019-01-29T19:40:31.456Z,-1.90
2019-01-29T19:43:00.942Z,-2.00
2019-01-29T19:45:32.896Z,-2.10
2019-01-29T19:48:03.295Z,-2.10
2019-01-29T19:50:36.189Z,-2.10
2019-01-29T19:53:06.168Z,-2.10
2019-01-29T19:55:36.054Z,-2.10
2019-01-29T19:58:09.269Z,-2.20
2019-01-29T20:00:41.361Z,-2.20
2019-01-29T20:03:11.382Z,-2.20
2019-01-29T20:05:41.241Z,-2.20
2019-01-29T20:08:11.152Z,-2.20
2019-01-29T20:10:41.151Z,-2.30
2019-01-29T20:13:11.035Z,-2.40
2019-01-29T20:15:40.882Z,-2.40
2019-01-29T20:18:11.158Z,-2.40
2019-01-29T20:20:42.462Z,-2.40
2019-01-29T20:23:12.403Z,-2.40
2019-01-29T20:25:42.224Z,-2.40
2019-01-29T20:28:12.226Z,-2.40
2019-01-29T20:30:43.331Z,-2.40
2019-01-29T20:33:13.177Z,-2.40
2019-01-29T20:35:43.118Z,-2.40
2019-01-29T20:38:12.967Z,-2.50
2019-01-29T20:40:42.853Z,-2.50
2019-01-29T20:43:12.840Z,-2.50
2019-01-29T20:45:42.731Z,-2.50
2019-01-29T20:48:12.578Z,-2.50
2019-01-29T20:50:42.485Z,-2.60
2019-01-29T20:53:12.266Z,-2.60
2019-01-29T20:55:42.107Z,-2.70
2019-01-29T20:58:11.995Z,-2.60
2019-01-29T21:00:42.216Z,-2.60
2019-01-29T21:03:12.081Z,-2.60
2019-01-29T21:05:42.073Z,-2.70
2019-01-29T21:08:11.881Z,-2.80
2019-01-29T21:10:41.417Z,-2.80
2019-01-29T21:13:11.082Z,-2.70
2019-01-29T21:15:40.466Z,-2.80
2019-01-29T21:18:09.643Z,-2.80
2019-01-29T21:20:38.626Z,-2.80
2019-01-29T21:23:07.457Z,-2.80
2019-01-29T21:25:36.279Z,-2.80
2019-01-29T21:28:05.579Z,-2.80
2019-01-29T21:30:36.859Z,-2.90
2019-01-29T21:33:05.918Z,-2.90
2019-01-29T21:35:34.846Z,-2.90
2019-01-29T21:38:04.129Z,-2.90
2019-01-29T21:40:33.116Z,-2.90
2019-01-29T21:43:02.100Z,-2.90
2019-01-29T21:45:31.111Z,-2.90
2019-01-29T21:48:01.361Z,-2.90
2019-01-29T21:50:31.325Z,-2.90
2019-01-29T21:53:00.300Z,-2.90
2019-01-29T21:55:29.321Z,-2.90
2019-01-29T21:57:58.600Z,-2.90
2019-01-29T22:00:37.714Z,-2.90
2019-01-29T22:03:07.464Z,-2.90
2019-01-29T22:05:36.496Z,-3.00
2019-01-29T22:08:06.484Z,-3.00
2019-01-29T22:10:36.865Z,-3.00
2019-01-29T22:13:07.648Z,-3.00
2019-01-29T22:15:36.607Z,-3.00
2019-01-29T22:18:06.775Z,-3.10
2019-01-29T22:20:37.095Z,-3.10
2019-01-29T22:23:06.168Z,-3.20
2019-01-29T22:25:35.885Z,-3.20
2019-01-29T22:28:07.095Z,-3.20
2019-01-29T22:30:37.068Z,-3.20
2019-01-29T22:33:06.897Z,-3.30
2019-01-29T22:35:35.794Z,-3.40
2019-01-29T22:38:05.048Z,-3.40
2019-01-29T22:40:35.032Z,-3.50
2019-01-29T22:43:04.452Z,-3.60
2019-01-29T22:45:33.368Z,-3.70
2019-01-29T22:48:04.496Z,-3.80
2019-01-29T22:50:35.075Z,-3.80
2019-01-29T22:53:04.259Z,-3.80
2019-01-29T22:55:33.219Z,-3.90
2019-01-29T22:58:02.191Z,-4.00
2019-01-29T23:01:01.135Z,-4.00
2019-01-29T23:03:54.431Z,-4.10
2019-01-29T23:06:41.339Z,-4.10
2019-01-29T23:09:11.313Z,-4.10
2019-01-29T23:11:40.393Z,-4.10
2019-01-29T23:14:10.763Z,-4.20
2019-01-29T23:16:39.734Z,-4.30
2019-01-29T23:19:08.758Z,-4.30
2019-01-29T23:21:37.670Z,-4.40
2019-01-29T23:24:06.861Z,-4.50
2019-01-29T23:26:36.630Z,-4.50
2019-01-29T23:29:05.712Z,-4.60
2019-01-29T23:31:34.636Z,-4.50
2019-01-29T23:34:03.532Z,-4.50
2019-01-29T23:36:32.519Z,-4.60
2019-01-29T23:39:01.340Z,-4.60
2019-01-29T23:41:30.288Z,-4.70
2019-01-29T23:43:59.112Z,-4.80
2019-01-29T23:46:27.932Z,-4.80
2019-01-29T23:48:56.751Z,-4.80
2019-01-29T23:51:25.577Z,-4.90
2019-01-29T23:53:54.399Z,-4.90
2019-01-29T23:56:23.236Z,-4.90
2019-01-29T23:58:52.238Z,-5.00
